Time;durP1;ratioP1;P1;durP2;ratioP2;P2;SDS_P1;SDS_P2;PMS_P1;PMS_P2;Temp;Humidity;BMP_temperature;BMP_pressure;BME280_temperature;BME280_humidity;BME280_pressure;Samples;Min_cycle;Max_cycle;Signal;HPM_P1;HPM_P2
2022/07/09 00:00:11;;;;;;;;;4.67;4.67;;;;;23.79;70.04;102208.91;6139958;23;45186;-95
2022/07/09 00:02:37;;;;;;;;;2.00;2.00;;;;;23.83;70.11;102226.84;6169017;23;45260;-93
2022/07/09 00:05:04;;;;;;;;;4.67;4.67;;;;;23.82;70.15;102202.69;6142488;23;46885;-96
2022/07/09 00:07:30;;;;;;;;;4.33;2.67;;;;;23.79;70.56;102210.69;6143242;23;45391;-95
2022/07/09 00:10:06;;;;;;;;;5.00;5.00;;;;;23.74;70.47;102194.53;6139006;23;45392;-95
2022/07/09 00:12:52;;;;;;;;;6.00;4.00;;;;;23.79;70.80;102205.34;6139572;23;45360;-94
2022/07/09 00:15:19;;;;;;;;;2.00;2.00;;;;;23.71;70.84;102198.06;6118583;23;45368;-96
2022/07/09 00:17:51;;;;;;;;;3.33;3.00;;;;;23.62;71.38;102158.66;6137550;23;45647;-94
2022/07/09 00:20:20;;;;;;;;;3.33;3.33;;;;;23.61;70.96;102159.53;6138731;23;45400;-95
2022/07/09 00:22:51;;;;;;;;;2.00;1.67;;;;;23.66;71.15;102184.63;6138274;23;45197;-94
2022/07/09 00:25:17;;;;;;;;;4.00;3.00;;;;;23.60;71.18;102152.38;6137390;23;45717;-95
2022/07/09 00:27:46;;;;;;;;;3.00;3.00;;;;;23.53;71.24;102134.41;6137722;23;45755;-95
2022/07/09 00:30:12;;;;;;;;;4.00;4.00;;;;;23.52;71.56;102136.22;6117588;23;45382;-95
2022/07/09 00:32:47;;;;;;;;;;;;;;;;;;;;;
2022/07/09 00:35:21;;;;;;;;;4.33;4.00;;;;;23.46;71.60;102135.16;6162284;23;75031;-96
2022/07/09 00:37:46;;;;;;;;;3.00;3.00;;;;;23.52;71.84;102143.34;6116223;23;45259;-95
2022/07/09 00:40:12;;;;;;;;;3.00;3.00;;;;;23.51;71.80;102131.72;6144335;23;45251;-95
2022/07/09 00:42:41;;;;;;;;;4.33;3.00;;;;;23.39;71.82;102124.38;6142258;23;45114;-95
2022/07/09 00:45:07;;;;;;;;;4.00;4.00;;;;;23.35;72.01;102101.09;6135043;23;46870;-95
2022/07/09 00:47:35;;;;;;;;;4.00;4.00;;;;;23.46;72.25;102128.03;6140372;23;45342;-95
2022/07/09 00:50:03;;;;;;;;;3.33;3.33;;;;;23.39;72.11;102094.03;6139664;23;45336;-96
2022/07/09 00:52:32;;;;;;;;;3.00;3.00;;;;;23.26;72.66;102077.78;6137249;23;45374;-96
2022/07/09 00:55:01;;;;;;;;;3.67;3.67;;;;;23.31;72.29;102080.53;6137846;23;47084;-95
2022/07/09 00:57:27;;;;;;;;;4.00;4.00;;;;;23.17;72.96;102049.09;6114730;23;45053;-95
2022/07/09 00:59:58;;;;;;;;;4.33;4.33;;;;;23.23;72.57;102067.03;6139118;23;45165;-95
2022/07/09 01:02:28;;;;;;;;;4.33;4.33;;;;;23.25;72.79;102061.69;6139169;23;45286;-95
2022/07/09 01:04:54;;;;;;;;;4.00;4.00;;;;;23.03;73.37;102011.44;6114048;23;47572;-96
2022/07/09 01:07:23;;;;;;;;;4.33;4.33;;;;;23.06;73.44;102016.84;6139805;23;45276;-95
2022/07/09 01:09:48;;;;;;;;;4.67;4.00;;;;;22.95;73.67;101983.66;6140390;23;45383;-95
2022/07/09 01:12:15;;;;;;;;;3.33;3.33;;;;;23.02;73.76;101990.88;6141386;23;45406;-95
2022/07/09 01:14:47;;;;;;;;;4.33;4.00;;;;;22.87;73.97;101960.38;6141754;23;46913;-95
2022/07/09 01:17:13;;;;;;;;;4.67;4.00;;;;;22.88;74.15;101950.56;6119641;23;44740;-95
2022/07/09 01:20:01;;;;;;;;;;;;;;;;;;;;;
2022/07/09 01:22:35;;;;;;;;;4.33;4.33;;;;;22.69;74.59;101899.44;6171965;23;68886;-95
2022/07/09 01:25:14;;;;;;;;;3.67;3.67;;;;;22.71;74.56;101896.78;6142928;23;46752;-96
2022/07/09 01:27:45;;;;;;;;;3.00;3.00;;;;;22.76;74.83;101911.13;6143182;23;45346;-95
2022/07/09 01:30:22;;;;;;;;;5.00;4.33;;;;;22.55;74.84;101856.44;6144061;23;45335;-95
2022/07/09 01:33:21;;;;;;;;;5.00;4.00;;;;;22.52;75.35;101851.06;6142824;23;45475;-95
2022/07/09 01:35:52;;;;;;;;;4.67;4.00;;;;;22.48;75.82;101828.72;6117322;23;47986;-95
2022/07/09 01:38:33;;;;;;;;;3.33;3.33;;;;;22.42;76.08;101810.78;6139277;23;45432;-95
2022/07/09 01:40:59;;;;;;;;;5.00;5.00;;;;;22.46;76.23;101790.34;6132852;23;45481;-95
2022/07/09 01:43:40;;;;;;;;;6.00;5.00;;;;;22.26;76.66;101742.88;6138836;23;45605;-95
2022/07/09 01:46:09;;;;;;;;;4.00;4.00;;;;;22.29;76.88;101740.22;6137755;23;47309;-96
2022/07/09 01:48:42;;;;;;;;;5.00;5.00;;;;;22.13;76.96;101701.72;6138313;23;45870;-95
2022/07/09 01:51:27;;;;;;;;;5.00;4.67;;;;;22.17;77.50;101702.63;6139093;23;44787;-95
2022/07/09 01:53:57;;;;;;;;;4.33;4.33;;;;;22.08;77.58;101680.28;6165790;23;45395;-95
2022/07/09 01:56:25;;;;;;;;;6.00;5.00;;;;;22.07;77.93;101669.53;6141056;23;46971;-96
2022/07/09 01:58:57;;;;;;;;;5.00;4.00;;;;;22.00;77.94;101647.19;6141035;23;44947;-96
2022/07/09 02:01:29;;;;;;;;;6.00;6.00;;;;;21.96;78.59;101632.00;6141686;23;45273;-95
2022/07/09 02:03:54;;;;;;;;;8.00;5.33;;;;;21.91;78.47;101605.22;6137793;23;45812;-95
2022/07/09 02:06:28;;;;;;;;;6.33;5.33;;;;;21.80;78.72;101574.78;6136245;23;47002;-95
2022/07/09 02:08:55;;;;;;;;;7.00;7.00;;;;;21.80;79.03;101567.63;6135802;23;45385;-96
2022/07/09 02:11:37;;;;;;;;;5.00;5.00;;;;;21.79;79.10;101555.16;6139566;23;45243;-96
2022/07/09 02:14:27;;;;;;;;;7.67;7.00;;;;;21.63;79.17;101533.63;6143473;23;45417;-96
2022/07/09 02:16:55;;;;;;;;;5.33;5.33;;;;;21.67;79.45;101526.56;6139065;23;47325;-95
2022/07/09 02:19:28;;;;;;;;;6.00;6.00;;;;;21.63;79.92;101512.25;6138443;23;45398;-95
2022/07/09 02:21:53;;;;;;;;;6.00;6.00;;;;;21.64;79.99;101511.38;6139062;23;45106;-96
2022/07/09 02:24:20;;;;;;;;;6.33;5.67;;;;;21.44;80.28;101482.66;6138676;23;45240;-95
2022/07/09 02:26:59;;;;;;;;;6.00;6.00;;;;;21.42;80.56;101481.75;6139238;23;47408;-96
2022/07/09 02:29:24;;;;;;;;;4.00;4.00;;;;;21.38;80.72;101473.69;6142852;23;45423;-95
2022/07/09 02:31:50;;;;;;;;;7.33;5.67;;;;;21.32;80.72;101466.50;6142513;23;45592;-95
2022/07/09 02:34:22;;;;;;;;;5.67;5.00;;;;;21.36;81.06;101473.69;6168132;23;44781;-96
2022/07/09 02:36:48;;;;;;;;;6.00;6.00;;;;;21.36;81.43;101480.78;6139669;23;48601;-96
2022/07/09 02:39:13;;;;;;;;;4.33;4.00;;;;;21.32;81.54;101471.84;6137836;23;45395;-95
2022/07/09 02:41:39;;;;;;;;;4.67;3.67;;;;;21.29;81.73;101471.78;6140813;23;45756;-95
2022/07/09 02:44:04;;;;;;;;;4.00;4.00;;;;;21.26;82.07;101472.66;6139921;23;45352;-95
2022/07/09 02:46:32;;;;;;;;;5.00;5.00;;;;;21.22;82.04;101470.81;6138958;23;47202;-95
2022/07/09 02:48:58;;;;;;;;;5.33;5.33;;;;;21.16;82.51;101463.63;6135472;23;45272;-96
2022/07/09 02:51:23;;;;;;;;;7.67;5.33;;;;;21.16;82.36;101476.97;6137521;23;45244;-95
2022/07/09 02:53:55;;;;;;;;;6.00;4.00;;;;;21.15;82.81;101484.97;6136745;23;45212;-96
2022/07/09 02:56:36;;;;;;;;;5.00;5.00;;;;;21.17;82.74;101497.47;6139918;23;47584;-95
2022/07/09 02:59:04;;;;;;;;;5.00;5.00;;;;;21.01;83.09;101466.06;6139535;23;45739;-95
2022/07/09 03:01:33;;;;;;;;;7.00;5.00;;;;;20.97;83.06;101467.81;6113941;23;45372;-96
2022/07/09 03:04:08;;;;;;;;;5.00;5.00;;;;;20.99;83.28;101472.28;6134298;23;45365;-96
2022/07/09 03:06:37;;;;;;;;;4.33;4.33;;;;;20.96;83.54;101480.25;6163659;23;46341;-95
2022/07/09 03:09:44;;;;;;;;;;;;;;;;;;;;;
2022/07/09 03:12:20;;;;;;;;;5.67;5.00;;;;;20.98;83.71;101491.84;6170917;23;67896;-96
2022/07/09 03:15:16;;;;;;;;;;;;;;;;;;;;;
2022/07/09 03:17:55;;;;;;;;;6.33;5.33;;;;;20.78;83.85;101467.53;6170502;23;76038;-96
2022/07/09 03:20:57;;;;;;;;;4.00;4.00;;;;;20.91;84.43;101489.97;6138470;23;45752;-96
2022/07/09 03:23:49;;;;;;;;;6.00;4.67;;;;;20.85;84.24;101482.75;6165154;23;45146;-96
2022/07/09 03:26:30;;;;;;;;;6.00;5.00;;;;;20.80;84.30;101467.56;6138716;23;45319;-96
2022/07/09 03:29:14;;;;;;;;;;;;;;;;;;;;;
2022/07/09 03:32:19;;;;;;;;;6.33;6.00;;;;;20.66;84.99;101473.63;6115799;23;73193;-96
2022/07/09 03:34:53;;;;;;;;;6.33;4.67;;;;;20.71;84.82;101482.56;6137249;23;45448;-96
2022/07/09 03:37:39;;;;;;;;;5.00;5.00;;;;;20.66;84.94;101476.28;6144192;23;45461;-96
2022/07/09 03:40:10;;;;;;;;;5.00;5.00;;;;;20.57;85.62;101466.34;6144047;23;47267;-95
2022/07/09 03:42:48;;;;;;;;;7.00;7.00;;;;;20.51;85.58;101467.16;6146543;23;45393;-95
2022/07/09 03:45:14;;;;;;;;;7.33;6.00;;;;;20.54;85.67;101488.53;6119470;23;45129;-96
2022/07/09 03:47:45;;;;;;;;;7.33;7.33;;;;;20.47;86.22;101486.66;6140348;23;45552;-96
2022/07/09 03:50:19;;;;;;;;;5.33;5.33;;;;;20.42;86.24;101469.69;6138414;23;46276;-95
2022/07/09 03:52:59;;;;;;;;;8.67;7.00;;;;;20.39;86.46;101472.28;6134978;23;45517;-95
2022/07/09 03:55:45;;;;;;;;;6.00;6.00;;;;;20.45;86.47;101479.50;6134044;23;45418;-96
2022/07/09 03:58:45;;;;;;;;;6.67;6.67;;;;;20.40;86.96;101493.66;6134508;23;45277;-96
2022/07/09 04:01:14;;;;;;;;;10.00;9.00;;;;;20.34;87.17;101485.56;6137547;23;46266;-95
2022/07/09 04:03:55;;;;;;;;;7.00;7.00;;;;;20.40;86.92;101503.44;6162908;23;45168;-95
2022/07/09 04:06:25;;;;;;;;;9.00;9.00;;;;;20.27;87.15;101478.34;6159923;23;44855;-95
2022/07/09 04:11:53;;;;;;;;;9.33;8.00;;;;;20.22;87.43;101472.94;6018314;23;45494;-96
2022/07/09 04:23:59;;;;;;;;;8.33;8.33;;;;;20.31;88.43;101488.16;6002403;23;46171;-96
2022/07/09 04:26:34;;;;;;;;;7.33;7.33;;;;;20.36;88.24;101496.25;5996108;23;45472;-96
2022/07/09 04:29:12;;;;;;;;;7.00;7.00;;;;;20.19;88.44;101467.53;6015030;23;45575;-96
2022/07/09 04:32:03;;;;;;;;;7.67;7.67;;;;;20.32;88.60;101497.97;6016871;23;45299;-96
2022/07/09 04:34:38;;;;;;;;;9.33;8.67;;;;;20.26;88.60;101485.44;6009629;23;47561;-95
2022/07/09 04:37:11;;;;;;;;;8.67;8.33;;;;;20.28;88.73;101482.81;6016889;23;44847;-96
2022/07/09 04:39:57;;;;;;;;;6.67;6.67;;;;;20.18;89.09;101458.66;6019261;23;45306;-95
2022/07/09 04:42:34;;;;;;;;;7.00;7.00;;;;;20.18;88.90;101460.41;6019227;23;44821;-96
2022/07/09 04:47:59;;;;;;;;;5.67;5.67;;;;;20.12;89.54;101458.56;6040806;23;45420;-95
2022/07/09 04:50:27;;;;;;;;;6.33;6.33;;;;;20.13;89.21;101457.66;6109627;23;45235;-95
2022/07/09 04:53:33;;;;;;;;;6.33;6.33;;;;;20.20;89.79;101477.34;6113072;23;45280;-95
2022/07/09 04:56:10;;;;;;;;;5.67;5.67;;;;;20.21;89.88;101485.34;6107736;23;46957;-96
2022/07/09 04:59:06;;;;;;;;;;;;;;;;;;;;;
2022/07/09 05:01:38;;;;;;;;;9.00;9.00;;;;;20.10;90.54;101469.13;6077789;23;45503;-96
2022/07/09 05:04:08;;;;;;;;;10.33;10.33;;;;;20.24;90.80;101497.84;6076795;23;44768;-95
2022/07/09 05:06:54;;;;;;;;;10.00;8.00;;;;;20.20;90.93;101488.88;6052664;23;47365;-96
2022/07/09 05:09:30;;;;;;;;;8.67;8.67;;;;;20.13;90.95;101473.66;6079362;23;45186;-95
2022/07/09 05:12:01;;;;;;;;;7.00;7.00;;;;;20.17;90.86;101471.97;6077437;23;44797;-93
2022/07/09 05:14:29;;;;;;;;;9.00;8.00;;;;;20.14;91.39;101459.47;6075434;23;45270;-95
2022/07/09 05:16:57;;;;;;;;;8.33;8.33;;;;;20.23;91.55;101458.72;6052598;23;45153;-96
2022/07/09 05:19:31;;;;;;;;;8.67;8.67;;;;;20.30;91.44;101455.31;6073265;23;45303;-94
2022/07/09 05:22:28;;;;;;;;;;;;;;;;;;;;;
2022/07/09 05:24:56;;;;;;;;;7.67;7.33;;;;;20.60;90.97;101478.84;6075038;23;69148;-95
2022/07/09 05:27:26;;;;;;;;;8.33;7.33;;;;;20.57;91.00;101462.78;6014492;23;46906;-95
2022/07/09 05:29:52;;;;;;;;;10.67;8.67;;;;;20.62;91.60;101463.75;5993341;23;45482;-94
2022/07/09 05:32:17;;;;;;;;;10.33;10.33;;;;;20.76;91.52;101474.63;6003620;23;45377;-96
2022/07/09 05:34:47;;;;;;;;;7.33;7.00;;;;;20.81;91.18;101466.69;6049779;23;45468;-94
2022/07/09 05:37:13;;;;;;;;;10.00;6.67;;;;;20.97;90.83;101482.06;6023754;23;47649;-93
2022/07/09 05:39:38;;;;;;;;;7.00;7.00;;;;;21.03;90.73;101485.72;6049326;23;45318;-94
2022/07/09 05:42:06;;;;;;;;;11.33;9.33;;;;;21.03;90.70;101472.38;6048885;23;44792;-94
2022/07/09 05:44:32;;;;;;;;;9.00;7.00;;;;;21.10;90.64;101458.22;6045407;23;45413;-93
2022/07/09 05:46:57;;;;;;;;;9.00;7.67;;;;;21.25;90.38;101461.97;6045605;23;46325;-94
2022/07/09 05:49:27;;;;;;;;;9.00;8.00;;;;;21.40;90.42;101470.16;6019470;23;45744;-94
2022/07/09 05:51:58;;;;;;;;;10.67;8.00;;;;;21.59;89.89;101491.75;6045755;23;45250;-93
2022/07/09 05:54:26;;;;;;;;;10.33;8.33;;;;;21.65;90.08;101494.47;6047253;23;45192;-94
2022/07/09 05:56:51;;;;;;;;;12.00;10.33;;;;;21.76;89.39;101496.34;6021824;23;48115;-93
2022/07/09 05:59:16;;;;;;;;;11.67;9.00;;;;;21.82;89.13;101491.09;6098946;23;45260;-95
2022/07/09 06:04:21;;;;;;;;;8.67;8.00;;;;;22.08;88.43;101503.84;6111144;23;45281;-95
2022/07/09 06:07:00;;;;;;;;;8.00;7.00;;;;;22.24;88.42;101505.75;6081277;23;48188;-94
2022/07/09 06:09:51;;;;;;;;;9.33;9.00;;;;;22.35;87.77;101509.41;6088838;23;45308;-92
2022/07/09 06:12:16;;;;;;;;;8.33;8.00;;;;;22.43;87.94;101504.13;6087418;23;45264;-94
2022/07/09 06:14:51;;;;;;;;;8.33;8.00;;;;;22.50;87.66;101503.28;6084348;23;45372;-95
2022/07/09 06:17:19;;;;;;;;;9.00;7.67;;;;;22.58;87.47;101499.75;6081732;23;48101;-95
2022/07/09 06:27:29;;;;;;;;;8.00;8.00;;;;;22.98;86.71;101517.91;6110138;22;46530;-90
2022/07/09 06:29:55;;;;;;;;;8.00;8.00;;;;;23.09;86.69;101528.69;6197557;22;51198;-92
2022/07/09 06:32:20;;;;;;;;;7.67;7.33;;;;;23.13;86.45;101514.41;6227159;22;45230;-94
2022/07/09 06:34:46;;;;;;;;;8.00;6.00;;;;;23.22;85.92;101510.84;6226675;22;51487;-95
2022/07/09 06:37:11;;;;;;;;;8.33;8.33;;;;;23.31;85.92;101521.63;6198312;22;46654;-96
2022/07/09 06:39:45;;;;;;;;;8.67;8.67;;;;;23.42;86.05;101527.03;6199418;22;44671;-95
2022/07/09 06:42:13;;;;;;;;;6.67;6.67;;;;;23.47;85.70;101523.47;6203675;22;45314;-96
2022/07/09 06:44:39;;;;;;;;;11.00;8.67;;;;;23.57;85.66;101521.75;6231130;22;45255;-94
2022/07/09 06:47:05;;;;;;;;;9.00;9.00;;;;;23.62;85.22;101531.59;6197997;22;47133;-94
2022/07/09 06:49:34;;;;;;;;;8.33;8.33;;;;;23.71;85.20;101529.84;6202361;22;45385;-92
2022/07/09 06:52:00;;;;;;;;;7.00;7.00;;;;;23.78;85.29;101534.31;6176725;22;45301;-95
2022/07/09 06:54:25;;;;;;;;;9.00;9.00;;;;;23.83;84.89;101531.66;6230532;22;45134;-95
2022/07/09 06:56:51;;;;;;;;;12.00;9.00;;;;;23.91;84.59;101529.00;6204468;22;46523;-95
2022/07/09 06:59:18;;;;;;;;;7.67;7.67;;;;;23.99;84.83;101529.91;6228714;22;45381;-94
2022/07/09 07:01:44;;;;;;;;;8.67;7.33;;;;;24.10;84.41;101543.31;6197647;22;45374;-94
2022/07/09 07:04:11;;;;;;;;;9.67;8.00;;;;;24.15;84.10;101540.63;6224684;22;45395;-95
2022/07/09 07:06:37;;;;;;;;;8.67;8.33;;;;;24.19;84.39;101529.94;6196755;22;46275;-95
2022/07/09 07:09:03;;;;;;;;;10.00;9.33;;;;;24.24;84.08;101535.28;6200263;22;44687;-96
2022/07/09 07:11:31;;;;;;;;;7.67;7.00;;;;;24.21;83.35;101529.91;6173561;22;45256;-94
2022/07/09 07:13:57;;;;;;;;;8.00;8.00;;;;;24.30;83.36;101534.44;6224808;22;44870;-94
2022/07/09 07:16:23;;;;;;;;;9.00;7.00;;;;;24.31;83.60;101526.38;6170137;22;46897;-92
2022/07/09 07:18:48;;;;;;;;;9.00;9.00;;;;;24.46;83.53;101538.00;6196817;22;45279;-92
2022/07/09 07:21:13;;;;;;;;;9.33;7.00;;;;;24.53;83.58;101530.84;6194904;22;45271;-89
2022/07/09 07:23:38;;;;;;;;;8.00;8.00;;;;;24.65;83.41;101538.88;6178992;22;45397;-93
2022/07/09 07:26:04;;;;;;;;;10.67;9.33;;;;;24.72;83.23;101537.06;6166757;23;67071;-95
2022/07/09 07:28:29;;;;;;;;;8.67;7.67;;;;;24.78;83.07;101534.38;6198268;23;45219;-92
2022/07/09 07:30:54;;;;;;;;;7.00;7.00;;;;;24.88;82.92;101534.38;6171267;23;45246;-93
2022/07/09 07:33:20;;;;;;;;;6.00;6.00;;;;;25.01;83.18;101543.31;6168795;23;50459;-95
2022/07/09 07:35:55;;;;;;;;;8.00;8.00;;;;;25.08;82.68;101550.44;6195067;23;46665;-94
2022/07/09 07:38:20;;;;;;;;;7.67;6.67;;;;;25.13;82.37;101546.88;6169637;23;45148;-92
2022/07/09 07:40:54;;;;;;;;;8.33;8.00;;;;;25.21;82.38;101550.41;6192879;23;45309;-92
2022/07/09 07:43:19;;;;;;;;;7.67;7.00;;;;;25.28;81.99;101549.47;6186077;23;45292;-89
2022/07/09 07:45:45;;;;;;;;;8.67;7.67;;;;;25.38;82.43;101552.16;6158133;23;47832;-90
2022/07/09 07:48:10;;;;;;;;;6.00;6.00;;;;;25.51;81.70;101555.69;6160854;23;45614;-91
2022/07/09 07:50:38;;;;;;;;;9.00;7.67;;;;;25.57;81.45;101561.00;6162022;23;45515;-90
2022/07/09 07:53:07;;;;;;;;;7.00;7.00;;;;;25.66;81.14;101549.34;6190376;23;45283;-94
2022/07/09 07:55:39;;;;;;;;;6.00;6.00;;;;;25.72;80.90;101556.47;6141308;23;48274;-94
2022/07/09 07:58:05;;;;;;;;;9.67;7.67;;;;;25.80;81.07;101559.16;6165057;23;45505;-91
2022/07/09 08:00:33;;;;;;;;;8.67;7.33;;;;;25.94;80.46;101573.41;6167728;23;45339;-92
2022/07/09 08:02:58;;;;;;;;;8.33;7.67;;;;;26.00;80.64;101569.78;6189259;23;45498;-93
2022/07/09 08:05:25;;;;;;;;;6.33;5.33;;;;;26.11;80.10;101575.06;6169859;23;58444;-94
2022/07/09 08:07:50;;;;;;;;;6.33;6.33;;;;;26.19;79.88;101577.72;6169669;23;45141;-93
2022/07/09 08:10:16;;;;;;;;;7.00;6.67;;;;;26.25;79.50;101583.06;6166096;23;44726;-93
2022/07/09 08:12:49;;;;;;;;;7.00;7.00;;;;;26.35;79.20;101586.56;6165177;23;45478;-95
2022/07/09 08:15:14;;;;;;;;;5.00;5.00;;;;;26.29;79.10;101563.28;6165391;23;47449;-91
2022/07/09 08:17:40;;;;;;;;;5.00;5.00;;;;;26.39;79.39;101565.94;6182792;23;45867;-91
2022/07/09 08:20:09;;;;;;;;;8.00;6.67;;;;;26.51;79.55;101562.25;6160749;23;45303;-90
2022/07/09 08:22:35;;;;;;;;;7.00;4.67;;;;;26.61;78.87;101580.13;6159741;23;45285;-91
2022/07/09 08:25:07;;;;;;;;;6.67;5.00;;;;;26.70;78.66;101576.44;6167637;23;47450;-95
2022/07/09 08:27:33;;;;;;;;;5.67;4.67;;;;;26.81;78.39;101575.44;6168128;23;45296;-95
2022/07/09 08:29:58;;;;;;;;;7.00;7.00;;;;;26.91;77.73;101582.50;6167875;23;45407;-93
2022/07/09 08:32:23;;;;;;;;;5.67;4.33;;;;;26.96;77.55;101588.75;6172380;23;45272;-96
2022/07/09 08:34:49;;;;;;;;;9.33;6.67;;;;;27.11;77.68;101594.91;6174560;23;46906;-95
2022/07/09 08:37:14;;;;;;;;;5.00;5.00;;;;;27.14;77.04;101594.88;6202400;22;56072;-94
2022/07/09 08:39:39;;;;;;;;;8.00;7.00;;;;;27.22;77.01;102037.63;6176430;23;44843;-94
2022/07/09 08:42:10;;;;;;;;;7.00;6.33;;;;;27.34;77.28;102071.72;6175428;23;45502;-95
2022/07/09 08:44:38;;;;;;;;;5.67;5.67;;;;;27.42;76.88;102092.38;6197197;23;45480;-93
2022/07/09 08:47:04;;;;;;;;;8.00;6.33;;;;;27.49;76.63;102121.09;6197568;23;45319;-94
2022/07/09 08:49:31;;;;;;;;;8.33;6.00;;;;;27.54;76.41;102140.84;6168063;23;45430;-90
2022/07/09 08:51:57;;;;;;;;;6.67;6.67;;;;;27.62;76.17;102145.31;6160064;23;45273;-90
2022/07/09 08:54:23;;;;;;;;;7.33;5.67;;;;;27.66;76.17;102150.66;6180133;23;46330;-88
2022/07/09 08:56:51;;;;;;;;;8.00;7.33;;;;;27.74;75.85;102153.34;6181901;23;45185;-89
2022/07/09 08:59:16;;;;;;;;;5.67;5.67;;;;;27.87;75.88;102172.19;6154514;23;45434;-91
2022/07/09 09:01:41;;;;;;;;;8.67;6.00;;;;;27.92;75.33;102169.44;6180805;23;45350;-89
2022/07/09 09:04:08;;;;;;;;;5.33;4.00;;;;;28.02;75.49;102160.41;6156245;23;47176;-88
2022/07/09 09:06:42;;;;;;;;;7.00;7.00;;;;;28.11;74.79;102191.84;6158843;23;45364;-88
2022/07/09 09:09:10;;;;;;;;;4.00;4.00;;;;;28.17;74.26;102212.47;6143925;23;45457;-90
2022/07/09 09:11:36;;;;;;;;;5.67;3.67;;;;;28.21;74.42;102203.47;6170212;23;44859;-89
2022/07/09 09:14:03;;;;;;;;;3.00;3.00;;;;;28.31;73.89;102226.81;6168400;23;47572;-90
2022/07/09 09:16:28;;;;;;;;;3.00;3.00;;;;;28.38;73.90;102219.56;6195803;23;45269;-90
2022/07/09 09:18:56;;;;;;;;;3.00;3.00;;;;;28.50;73.58;102250.13;6163413;23;45196;-89
2022/07/09 09:21:26;;;;;;;;;3.00;3.00;;;;;28.59;73.85;102243.75;6191501;23;45432;-89
2022/07/09 09:23:54;;;;;;;;;4.67;4.33;;;;;28.65;72.98;102258.13;6160688;23;47108;-94
2022/07/09 09:26:20;;;;;;;;;3.00;3.00;;;;;28.73;73.21;102249.97;6171314;23;45170;-95
2022/07/09 09:28:57;;;;;;;;;3.00;3.00;;;;;28.89;72.72;102271.44;6198598;23;44668;-95
2022/07/09 09:31:24;;;;;;;;;4.00;4.00;;;;;28.95;72.48;102270.50;6196663;23;45209;-94
2022/07/09 09:33:52;;;;;;;;;4.33;3.00;;;;;29.05;72.33;102284.84;6169372;23;47163;-95
2022/07/09 09:36:31;;;;;;;;;4.00;3.00;;;;;29.19;72.93;102280.25;6169811;23;45438;-94
2022/07/09 09:39:10;;;;;;;;;2.67;2.67;;;;;29.34;72.54;102281.00;6198370;23;45325;-94
2022/07/09 09:41:35;;;;;;;;;2.67;2.67;;;;;29.49;72.27;102292.56;6170210;23;44780;-94
2022/07/09 09:44:05;;;;;;;;;5.33;4.00;;;;;29.62;71.64;102296.06;6170533;23;47246;-92
2022/07/09 09:46:34;;;;;;;;;5.00;5.00;;;;;29.77;72.27;102281.47;6172190;23;45058;-96
2022/07/09 09:48:59;;;;;;;;;4.33;4.33;;;;;29.92;71.98;102284.94;6175591;23;45090;-95
2022/07/09 09:51:34;;;;;;;;;4.67;4.67;;;;;30.13;71.42;102302.69;6168031;22;45371;-94
2022/07/09 09:54:02;;;;;;;;;3.67;3.67;;;;;30.29;71.20;102316.94;6124363;23;46665;-96
2022/07/09 09:56:30;;;;;;;;;4.00;4.00;;;;;30.38;70.94;102320.47;6145727;23;44767;-95
2022/07/09 09:58:56;;;;;;;;;6.00;5.00;;;;;30.73;69.85;102335.31;6142145;23;45220;-94
2022/07/09 10:01:23;;;;;;;;;2.00;2.00;;;;;31.55;70.39;102337.66;6162748;23;45207;-96
2022/07/09 10:03:49;;;;;;;;;4.00;4.00;;;;;32.56;69.16;102335.63;6169678;23;45617;-95
2022/07/09 10:06:15;;;;;;;;;4.00;4.00;;;;;33.54;68.53;102358.69;6164727;23;45151;-94
2022/07/09 10:08:42;;;;;;;;;4.33;4.33;;;;;34.84;68.20;102389.47;6137114;23;45268;-93
2022/07/09 10:11:07;;;;;;;;;5.00;4.00;;;;;35.94;66.65;102399.47;6091938;23;45430;-95
2022/07/09 10:13:33;;;;;;;;;7.00;7.00;;;;;37.06;64.60;102418.00;6169805;23;51946;-96
2022/07/09 10:15:59;;;;;;;;;5.33;5.33;;;;;38.05;62.92;102420.16;6145107;23;45253;-94
2022/07/09 10:18:24;;;;;;;;;6.67;6.00;;;;;38.61;62.77;102413.91;6169270;23;45688;-96
2022/07/09 10:20:58;;;;;;;;;2.00;1.67;;;;;39.36;61.76;102420.34;6172942;23;45527;-94
2022/07/09 10:23:26;;;;;;;;;3.00;3.00;;;;;40.10;59.32;102424.75;6168963;23;45294;-93
2022/07/09 10:25:55;;;;;;;;;3.00;3.00;;;;;41.62;58.69;102451.88;6167901;23;45394;-91
2022/07/09 10:28:21;;;;;;;;;2.00;2.00;;;;;43.29;57.29;102439.41;6138598;23;44700;-89
2022/07/09 10:30:47;;;;;;;;;3.00;3.00;;;;;44.96;55.88;102450.56;6167424;23;44695;-93
2022/07/09 10:33:21;;;;;;;;;2.67;2.67;;;;;46.07;52.67;102446.63;6165550;23;46055;-93
2022/07/09 10:35:54;;;;;;;;;2.00;2.00;;;;;46.64;51.33;102458.69;6137776;23;44952;-90
2022/07/09 10:38:24;;;;;;;;;3.00;1.00;;;;;47.58;47.57;102456.28;6161793;23;45307;-91
2022/07/09 10:40:58;;;;;;;;;3.33;3.33;;;;;48.87;47.70;102447.53;6166321;23;45738;-90
2022/07/09 10:43:49;;;;;;;;;1.00;1.00;;;;;50.38;45.85;102452.59;6141652;23;45434;-91
2022/07/09 10:46:15;;;;;;;;;1.67;1.67;;;;;51.75;44.73;102448.75;6133846;23;45352;-90
2022/07/09 10:48:43;;;;;;;;;3.33;3.33;;;;;52.94;41.53;102451.78;6137775;23;44762;-93
2022/07/09 10:51:17;;;;;;;;;4.00;4.00;;;;;53.71;38.62;102453.44;6163521;23;45265;-90
2022/07/09 10:53:42;;;;;;;;;3.00;3.00;;;;;54.10;38.20;102453.66;6158557;23;46402;-92
2022/07/09 10:56:07;;;;;;;;;8.00;7.33;;;;;54.55;36.65;102436.19;6160154;23;55942;-93
2022/07/09 10:58:32;;;;;;;;;8.00;8.00;;;;;52.70;37.05;102438.63;6160928;23;45661;-92
2022/07/09 11:01:00;;;;;;;;;12.50;12.50;;;;;52.39;37.89;102438.22;6161788;23;45319;-92
2022/07/09 11:03:27;;;;;;;;;5.67;5.00;;;;;53.23;35.91;102438.28;6164353;23;45503;-89
2022/07/09 11:05:52;;;;;;;;;3.00;3.00;;;;;54.25;37.48;102437.81;6166640;23;44604;-92
2022/07/09 11:08:18;;;;;;;;;4.00;4.00;;;;;55.30;36.31;102424.31;6136897;23;45197;-92
2022/07/09 11:10:44;;;;;;;;;3.33;3.33;;;;;56.31;35.72;102434.31;6167524;23;45363;-91
2022/07/09 11:13:12;;;;;;;;;4.00;4.00;;;;;57.17;35.08;102431.63;6140222;23;48062;-92
2022/07/09 11:15:38;;;;;;;;;3.33;3.33;;;;;56.58;34.04;102417.69;6140089;23;50019;-91
2022/07/09 11:18:11;;;;;;;;;10.00;8.67;;;;;55.09;33.59;102425.91;6163680;23;44683;-95
2022/07/09 11:20:44;;;;;;;;;9.67;9.67;;;;;53.52;33.70;102421.91;6138702;23;44817;-95
2022/07/09 11:23:09;;;;;;;;;15.33;14.67;;;;;51.45;33.91;102406.25;6164458;23;46179;-91
2022/07/09 11:25:36;;;;;;;;;8.33;8.33;;;;;49.69;34.67;102418.41;6164020;23;45149;-93
2022/07/09 11:28:04;;;;;;;;;7.67;7.67;;;;;48.73;35.46;102413.53;6160407;23;44802;-91
2022/07/09 11:30:32;;;;;;;;;11.00;11.00;;;;;49.90;36.26;102406.13;6163358;23;45211;-93
2022/07/09 11:32:58;;;;;;;;;5.67;5.67;;;;;51.69;35.40;102410.28;6159472;23;47083;-90
2022/07/09 11:35:34;;;;;;;;;6.67;6.67;;;;;53.56;35.55;102392.44;6136404;23;45347;-92
2022/07/09 11:38:04;;;;;;;;;6.00;6.00;;;;;55.38;34.52;102395.22;6162790;23;45177;-90
2022/07/09 11:40:31;;;;;;;;;9.00;9.00;;;;;55.20;30.01;102398.38;6136112;23;45391;-91
2022/07/09 11:42:56;;;;;;;;;4.00;4.00;;;;;53.04;32.66;102400.28;6136732;23;45567;-91
2022/07/09 11:45:29;;;;;;;;;4.67;4.67;;;;;51.18;33.60;102397.91;6161734;23;44678;-89
2022/07/09 11:48:06;;;;;;;;;4.00;4.00;;;;;52.15;34.34;102392.25;6134567;23;45331;-88
2022/07/09 11:50:32;;;;;;;;;4.33;4.33;;;;;53.65;32.76;102395.25;6166607;23;45458;-90
2022/07/09 11:52:58;;;;;;;;;8.00;8.00;;;;;55.12;32.11;102388.13;6160882;23;45328;-90
2022/07/09 11:55:32;;;;;;;;;16.75;16.75;;;;;56.49;31.56;102389.66;6159595;23;45707;-91
2022/07/09 11:57:59;;;;;;;;;10.00;9.33;;;;;57.64;31.69;102387.88;6134802;23;45244;-89
2022/07/09 12:00:27;;;;;;;;;5.00;5.00;;;;;58.81;30.95;102373.78;6160436;23;45307;-91
2022/07/09 12:02:53;;;;;;;;;5.00;4.67;;;;;59.07;30.18;102386.13;6161653;23;45379;-92
2022/07/09 12:05:35;;;;;;;;;5.00;4.00;;;;;56.71;29.65;102384.00;6161291;23;45324;-90
2022/07/09 12:08:04;;;;;;;;;3.00;3.00;;;;;53.99;29.90;102380.03;6133698;23;44786;-90
2022/07/09 12:10:32;;;;;;;;;4.00;4.00;;;;;51.88;30.39;102374.72;6161961;23;45323;-90
2022/07/09 12:12:59;;;;;;;;;4.33;4.00;;;;;51.51;31.99;102365.59;6158480;23;45256;-90
2022/07/09 12:15:25;;;;;;;;;4.00;4.00;;;;;50.96;32.25;102375.00;6156419;23;45260;-92